Time;durP1;ratioP1;P1;durP2;ratioP2;P2;SDS_P1;SDS_P2;PMS_P1;PMS_P2;Temp;Humidity;BMP_temperature;BMP_pressure;BME280_temperature;BME280_humidity;BME280_pressure;Samples;Min_cycle;Max_cycle;Signal;HPM_P1;HPM_P2
2021/05/03 00:01:48;;;;;;;5.15;1.90;;;9.20;76.10;;;;;;3542193;40;20644;-64
2021/05/03 00:04:14;;;;;;;3.28;1.83;;;9.20;75.90;;;;;;3553399;40;20077;-63
2021/05/03 00:06:40;;;;;;;3.05;1.88;;;9.20;75.90;;;;;;3545449;40;20026;-64
2021/05/03 00:09:06;;;;;;;4.05;1.83;;;9.20;75.30;;;;;;3557405;40;20116;-62
2021/05/03 00:11:32;;;;;;;7.15;2.22;;;9.20;75.20;;;;;;3558049;40;20036;-62
2021/05/03 00:13:58;;;;;;;4.90;2.00;;;9.10;75.70;;;;;;3558065;40;20057;-62
2021/05/03 00:16:24;;;;;;;4.53;2.33;;;9.00;75.70;;;;;;3556398;40;20138;-63
2021/05/03 00:18:50;;;;;;;7.90;2.00;;;8.90;76.20;;;;;;3554635;40;20034;-62
2021/05/03 00:21:16;;;;;;;6.35;2.13;;;8.80;76.50;;;;;;3554894;40;20044;-62
2021/05/03 00:23:42;;;;;;;4.32;1.80;;;8.80;76.60;;;;;;3557107;40;20148;-62
2021/05/03 00:26:08;;;;;;;3.78;2.00;;;8.80;76.80;;;;;;3558312;40;20307;-64
2021/05/03 00:28:34;;;;;;;6.05;2.10;;;8.70;77.30;;;;;;3550102;40;20059;-63
2021/05/03 00:31:00;;;;;;;3.80;1.80;;;8.70;76.90;;;;;;3551422;40;20041;-64
2021/05/03 00:33:26;;;;;;;5.50;2.15;;;8.60;77.00;;;;;;3554355;40;20413;-63
2021/05/03 00:35:51;;;;;;;4.72;1.80;;;8.50;76.90;;;;;;3555317;40;20058;-64
2021/05/03 00:38:17;;;;;;;9.10;2.50;;;8.40;77.10;;;;;;3557915;40;20033;-64
2021/05/03 00:40:43;;;;;;;4.63;2.33;;;8.50;77.20;;;;;;3558535;40;20018;-64
2021/05/03 00:43:10;;;;;;;5.05;2.30;;;8.40;77.50;;;;;;3557357;40;20222;-64
2021/05/03 00:45:36;;;;;;;6.72;2.03;;;8.30;77.50;;;;;;3555513;40;20037;-64
2021/05/03 00:48:02;;;;;;;5.05;2.00;;;8.20;77.90;;;;;;3553975;40;20036;-64
2021/05/03 00:50:29;;;;;;;2.88;1.92;;;8.20;78.30;;;;;;3551801;40;20049;-64
2021/05/03 00:52:56;;;;;;;3.03;1.90;;;8.10;78.10;;;;;;3550240;40;20026;-64
2021/05/03 00:55:24;;;;;;;4.95;1.90;;;8.00;77.70;;;;;;3550804;40;20072;-64
2021/05/03 00:57:50;;;;;;;5.95;2.08;;;8.00;78.20;;;;;;3551808;40;20734;-64
2021/05/03 01:00:16;;;;;;;6.78;2.25;;;8.00;78.50;;;;;;3553764;40;20042;-64
2021/05/03 01:02:42;;;;;;;3.33;2.30;;;7.90;78.60;;;;;;3555436;40;20053;-64
2021/05/03 01:05:08;;;;;;;6.00;2.35;;;7.80;78.70;;;;;;3556940;40;20632;-64
2021/05/03 01:07:35;;;;;;;4.60;2.28;;;7.80;79.00;;;;;;3558371;40;20037;-63
2021/05/03 01:10:00;;;;;;;3.90;2.10;;;7.80;79.10;;;;;;3557172;40;20037;-64
2021/05/03 01:12:26;;;;;;;5.68;2.20;;;7.80;79.00;;;;;;3557028;40;20037;-64
2021/05/03 01:14:52;;;;;;;3.78;2.20;;;7.70;79.50;;;;;;3555320;40;20036;-63
2021/05/03 01:17:18;;;;;;;4.75;2.13;;;7.70;79.20;;;;;;3553403;40;20056;-64
2021/05/03 01:19:44;;;;;;;4.00;2.10;;;7.80;80.00;;;;;;3551239;40;20026;-63
2021/05/03 01:22:09;;;;;;;9.30;2.20;;;7.80;79.10;;;;;;3550808;40;20033;-63
2021/05/03 01:24:35;;;;;;;5.13;2.15;;;7.80;79.00;;;;;;3552812;40;20088;-63
2021/05/03 01:27:01;;;;;;;3.72;2.33;;;7.80;78.90;;;;;;3553887;40;20550;-63
2021/05/03 01:29:27;;;;;;;5.70;2.63;;;7.80;78.40;;;;;;3553937;40;20045;-65
2021/05/03 01:31:53;;;;;;;5.05;2.97;;;7.80;78.50;;;;;;3551943;40;20074;-64
2021/05/03 01:34:20;;;;;;;4.80;2.50;;;7.80;79.20;;;;;;3552733;40;20666;-64
2021/05/03 01:36:47;;;;;;;5.60;2.55;;;7.80;78.40;;;;;;3557998;40;20034;-63
2021/05/03 01:39:16;;;;;;;2.75;2.00;;;7.70;78.50;;;;;;3556606;40;20115;-63
2021/05/03 01:41:42;;;;;;;4.38;1.83;;;7.70;78.40;;;;;;3554347;40;20092;-63
2021/05/03 01:44:09;;;;;;;5.45;2.33;;;7.60;78.40;;;;;;3552476;40;20718;-64
2021/05/03 01:46:36;;;;;;;3.80;2.28;;;7.60;78.60;;;;;;3550416;40;20079;-64
2021/05/03 01:49:04;;;;;;;3.97;2.00;;;7.50;78.40;;;;;;3548861;40;20111;-64
2021/05/03 01:51:30;;;;;;;3.13;2.00;;;7.50;78.30;;;;;;3547219;40;20315;-64
2021/05/03 01:53:56;;;;;;;5.18;2.22;;;7.40;78.60;;;;;;3555293;40;20131;-61
2021/05/03 01:56:26;;;;;;;6.30;2.15;;;7.40;78.30;;;;;;3553551;40;20092;-62
2021/05/03 01:58:52;;;;;;;4.53;1.95;;;7.40;78.20;;;;;;3557061;40;20029;-63
2021/05/03 02:01:18;;;;;;;4.82;2.50;;;7.40;78.20;;;;;;3558460;40;20038;-63
2021/05/03 02:03:44;;;;;;;4.53;2.10;;;7.40;78.40;;;;;;3559214;40;20292;-64
2021/05/03 02:06:12;;;;;;;3.22;1.90;;;7.30;78.20;;;;;;3557690;40;20021;-63
2021/05/03 02:08:42;;;;;;;2.38;1.80;;;7.30;78.60;;;;;;3554808;40;20101;-62
2021/05/03 02:11:09;;;;;;;3.10;2.00;;;7.20;78.70;;;;;;3555310;40;20046;-61
2021/05/03 02:13:35;;;;;;;6.53;2.05;;;7.20;78.80;;;;;;3557632;40;20017;-62
2021/05/03 02:16:01;;;;;;;3.28;2.08;;;7.20;79.10;;;;;;3558946;40;20041;-61
2021/05/03 02:18:27;;;;;;;5.85;2.13;;;7.20;78.80;;;;;;3557823;40;20292;-62
2021/05/03 02:20:53;;;;;;;4.47;2.28;;;7.20;78.80;;;;;;3556165;40;20049;-61
2021/05/03 02:23:19;;;;;;;4.72;2.53;;;7.20;78.70;;;;;;3554600;40;20045;-61
2021/05/03 02:25:45;;;;;;;6.10;2.20;;;7.20;78.50;;;;;;3552753;40;20104;-62
2021/05/03 02:28:11;;;;;;;2.70;2.20;;;7.10;78.40;;;;;;3542494;40;20032;-61
2021/05/03 02:30:38;;;;;;;4.03;1.80;;;7.10;78.70;;;;;;3551678;40;20033;-63
2021/05/03 02:33:05;;;;;;;3.40;2.00;;;7.10;78.50;;;;;;3541545;40;20119;-62
2021/05/03 02:35:33;;;;;;;5.82;2.00;;;7.10;78.90;;;;;;3542776;40;20116;-62
2021/05/03 02:38:01;;;;;;;3.30;1.75;;;7.10;78.70;;;;;;3548232;40;20347;-61
2021/05/03 02:40:27;;;;;;;4.45;2.00;;;7.00;78.80;;;;;;3556936;40;20069;-62
2021/05/03 02:42:56;;;;;;;5.28;2.40;;;7.00;79.10;;;;;;3559334;40;20037;-62
2021/05/03 02:45:22;;;;;;;3.20;2.13;;;7.10;79.00;;;;;;3556101;40;20044;-61
2021/05/03 02:47:48;;;;;;;4.93;1.95;;;7.00;78.80;;;;;;3554904;40;20037;-62
2021/05/03 02:50:16;;;;;;;6.90;2.33;;;7.00;79.20;;;;;;3555885;40;20033;-61
2021/05/03 02:52:43;;;;;;;5.35;1.83;;;6.90;79.40;;;;;;3553828;40;20025;-62
2021/05/03 02:55:11;;;;;;;4.38;1.85;;;6.90;79.50;;;;;;3553420;40;20037;-61
2021/05/03 02:57:40;;;;;;;2.97;1.90;;;6.90;79.40;;;;;;3558135;40;20064;-62
2021/05/03 03:00:08;;;;;;;3.78;2.25;;;6.90;79.50;;;;;;3552747;40;20466;-62
2021/05/03 03:02:34;;;;;;;2.50;2.13;;;6.80;79.60;;;;;;3554892;40;20065;-61
2021/05/03 03:05:00;;;;;;;3.85;1.92;;;6.80;79.70;;;;;;3554320;40;20641;-61
2021/05/03 03:07:26;;;;;;;2.97;1.90;;;6.80;80.00;;;;;;3553967;40;20049;-61
2021/05/03 03:09:52;;;;;;;3.25;2.05;;;6.80;79.90;;;;;;3543791;40;20041;-62
2021/05/03 03:12:18;;;;;;;6.25;2.65;;;6.80;80.10;;;;;;3549647;40;20033;-61
2021/05/03 03:14:43;;;;;;;4.80;2.45;;;6.70;79.80;;;;;;3552754;40;20046;-62
2021/05/03 03:17:10;;;;;;;3.95;2.25;;;6.70;80.00;;;;;;3554112;40;20069;-61
2021/05/03 03:19:40;;;;;;;6.53;2.22;;;6.70;80.30;;;;;;3553086;40;20032;-61
2021/05/03 03:22:07;;;;;;;3.85;2.30;;;6.60;80.10;;;;;;3555895;40;20767;-62
2021/05/03 03:24:33;;;;;;;3.80;2.05;;;6.60;80.50;;;;;;3557059;40;20247;-62
2021/05/03 03:26:59;;;;;;;5.10;2.28;;;6.60;80.30;;;;;;3548649;40;20664;-61
2021/05/03 03:29:25;;;;;;;4.50;2.88;;;6.60;80.00;;;;;;3556273;40;20045;-61
2021/05/03 03:31:51;;;;;;;4.40;2.65;;;6.50;80.10;;;;;;3554800;40;20166;-62
2021/05/03 03:34:17;;;;;;;6.65;2.42;;;6.60;80.60;;;;;;3554833;40;20642;-61
2021/05/03 03:36:42;;;;;;;4.32;2.83;;;6.60;80.40;;;;;;3556471;40;20036;-61
2021/05/03 03:39:08;;;;;;;4.03;2.63;;;6.60;80.20;;;;;;3552834;40;20042;-63
2021/05/03 03:41:34;;;;;;;6.22;2.50;;;6.70;80.10;;;;;;3554923;40;20115;-63
2021/05/03 03:44:01;;;;;;;5.90;2.83;;;6.80;79.60;;;;;;3554678;40;20045;-64
2021/05/03 03:46:26;;;;;;;5.30;2.42;;;6.80;79.80;;;;;;3554349;40;20121;-63
2021/05/03 03:48:52;;;;;;;5.38;2.60;;;6.80;79.60;;;;;;3556401;40;20626;-63
2021/05/03 03:51:18;;;;;;;4.82;2.55;;;6.80;79.40;;;;;;3555809;40;20037;-64
2021/05/03 03:53:44;;;;;;;5.05;2.50;;;6.80;79.40;;;;;;3546170;40;20555;-64
2021/05/03 03:56:12;;;;;;;5.15;2.55;;;6.90;79.00;;;;;;3548779;40;20040;-63
2021/05/03 03:58:38;;;;;;;9.30;2.75;;;6.90;78.80;;;;;;3557255;40;20092;-64
2021/05/03 04:01:04;;;;;;;4.97;2.53;;;6.90;78.80;;;;;;3556884;40;20451;-64
2021/05/03 04:03:30;;;;;;;3.90;2.60;;;6.80;79.00;;;;;;3555265;40;20125;-63
2021/05/03 04:11:24;;;;;;;7.22;2.67;;;6.70;79.10;;;;;;3554374;40;20462;-63
2021/05/03 04:14:22;;;;;;;7.40;2.80;;;6.70;79.20;;;;;;3556270;40;20033;-64
2021/05/03 04:27:45;;;;;;;4.88;2.60;;;6.90;78.60;;;;;;3555464;40;20033;-61
2021/05/03 04:30:11;;;;;;;7.05;2.75;;;7.00;78.10;;;;;;3554123;40;20151;-61
2021/05/03 04:32:38;;;;;;;4.05;2.33;;;7.00;78.20;;;;;;3556535;40;20186;-65
2021/05/03 04:35:04;;;;;;;5.03;2.67;;;7.00;78.30;;;;;;3544058;40;20018;-61
2021/05/03 04:37:30;;;;;;;6.82;2.88;;;7.10;78.10;;;;;;3551463;40;20037;-61
2021/05/03 04:39:56;;;;;;;4.55;2.80;;;7.10;77.50;;;;;;3555285;40;20045;-61
2021/05/03 04:42:22;;;;;;;9.20;4.20;;;7.10;77.60;;;;;;3546516;40;20445;-67
2021/05/03 04:44:48;;;;;;;7.15;3.25;;;7.10;77.90;;;;;;3548325;40;20485;-61
2021/05/03 04:47:14;;;;;;;4.50;2.72;;;7.10;77.50;;;;;;3558561;40;20025;-61
2021/05/03 04:49:39;;;;;;;3.50;2.10;;;7.20;77.20;;;;;;3557663;40;20017;-62
2021/05/03 04:52:06;;;;;;;7.57;2.63;;;7.20;76.70;;;;;;3544040;40;20029;-61
2021/05/03 04:54:32;;;;;;;10.07;3.58;;;7.30;77.00;;;;;;3544948;40;20033;-62
2021/05/03 04:56:58;;;;;;;3.55;2.80;;;7.30;76.70;;;;;;3555655;40;20034;-62
2021/05/03 04:59:24;;;;;;;7.95;4.70;;;7.30;76.70;;;;;;3550214;40;20082;-62
2021/05/03 05:01:49;;;;;;;3.78;2.72;;;7.20;75.80;;;;;;3539404;40;20066;-62
2021/05/03 05:04:15;;;;;;;4.15;2.58;;;7.20;76.40;;;;;;3542760;40;20093;-62
2021/05/03 05:06:41;;;;;;;3.38;2.28;;;7.20;77.00;;;;;;3543490;40;20065;-62
2021/05/03 05:09:08;;;;;;;6.43;2.70;;;7.20;77.10;;;;;;3542423;40;20811;-62
2021/05/03 05:11:34;;;;;;;6.13;2.97;;;7.20;76.70;;;;;;3539133;40;20034;-62
2021/05/03 05:14:00;;;;;;;6.80;3.05;;;7.30;77.00;;;;;;3537560;40;20665;-62
2021/05/03 05:16:26;;;;;;;5.38;2.75;;;7.50;76.80;;;;;;3542326;40;20026;-62
2021/05/03 05:18:52;;;;;;;5.35;2.90;;;7.80;74.50;;;;;;3545579;40;20063;-61
2021/05/03 05:21:18;;;;;;;5.88;2.85;;;8.10;73.90;;;;;;3544557;40;20037;-62
2021/05/03 05:23:44;;;;;;;5.40;3.00;;;8.50;73.10;;;;;;3544444;40;20541;-66
2021/05/03 05:26:10;;;;;;;12.18;4.55;;;8.80;70.90;;;;;;3543911;40;20015;-65
2021/05/03 05:28:36;;;;;;;6.53;3.50;;;9.10;69.50;;;;;;3547804;40;20097;-63
2021/05/03 05:31:03;;;;;;;5.07;2.50;;;9.50;68.80;;;;;;3541351;40;20536;-66
2021/05/03 05:33:28;;;;;;;4.97;2.55;;;9.90;66.20;;;;;;3545166;40;20046;-62
2021/05/03 05:35:54;;;;;;;6.50;2.70;;;10.40;64.70;;;;;;3543478;40;20110;-62
2021/05/03 05:38:23;;;;;;;3.72;2.45;;;10.80;63.60;;;;;;3542384;40;20049;-64
2021/05/03 05:40:49;;;;;;;6.65;2.38;;;11.30;62.20;;;;;;3542975;40;20034;-61
2021/05/03 05:43:15;;;;;;;4.95;2.65;;;11.70;60.50;;;;;;3541684;40;20718;-62
2021/05/03 05:45:41;;;;;;;2.60;2.28;;;11.80;59.60;;;;;;3545376;40;20033;-62
2021/05/03 05:48:07;;;;;;;3.65;2.35;;;11.60;60.30;;;;;;3542972;40;20143;-63
2021/05/03 05:50:33;;;;;;;4.38;2.72;;;11.50;60.60;;;;;;3543416;40;20040;-62
2021/05/03 05:52:59;;;;;;;3.83;2.30;;;11.50;61.00;;;;;;3543488;40;20033;-62
2021/05/03 05:55:25;;;;;;;5.63;3.22;;;11.60;59.90;;;;;;3545901;40;20121;-62
2021/05/03 05:57:51;;;;;;;6.72;3.08;;;11.70;60.20;;;;;;3541984;40;20037;-65
2021/05/03 06:00:17;;;;;;;8.52;2.47;;;11.90;59.60;;;;;;3540402;40;20034;-65
2021/05/03 06:02:43;;;;;;;4.78;2.78;;;12.20;59.30;;;;;;3543081;40;20471;-62
2021/05/03 06:05:10;;;;;;;6.78;2.63;;;12.60;58.40;;;;;;3544398;40;20029;-62
2021/05/03 06:07:36;;;;;;;7.70;3.00;;;12.90;57.10;;;;;;3542513;40;20034;-62
2021/05/03 06:10:02;;;;;;;2.72;1.75;;;13.00;55.80;;;;;;3539845;40;20030;-63
2021/05/03 06:12:28;;;;;;;3.22;1.95;;;13.30;56.10;;;;;;3542102;40;20435;-65
2021/05/03 06:14:54;;;;;;;3.40;1.77;;;13.50;55.80;;;;;;3543447;40;20042;-65
2021/05/03 06:17:21;;;;;;;4.63;2.20;;;13.90;54.50;;;;;;3545114;40;20042;-64
2021/05/03 06:19:47;;;;;;;4.70;2.00;;;14.10;54.20;;;;;;3545789;40;20022;-65
2021/05/03 06:22:12;;;;;;;4.28;2.15;;;14.10;53.10;;;;;;3541938;40;20045;-65
2021/05/03 06:24:39;;;;;;;4.25;2.00;;;13.80;53.40;;;;;;3546043;40;20030;-65
2021/05/03 06:27:05;;;;;;;4.22;2.30;;;13.30;54.40;;;;;;3545853;40;20085;-65
2021/05/03 06:29:30;;;;;;;6.57;2.28;;;12.90;55.30;;;;;;3544513;40;20041;-65
2021/05/03 06:31:58;;;;;;;5.53;2.45;;;12.50;57.00;;;;;;3545020;40;20042;-66
2021/05/03 06:34:27;;;;;;;5.07;2.67;;;12.10;58.20;;;;;;3546948;40;20026;-62
2021/05/03 06:36:53;;;;;;;5.13;2.47;;;11.80;58.40;;;;;;3543864;40;20022;-62
2021/05/03 06:39:19;;;;;;;8.45;2.88;;;11.60;59.80;;;;;;3545483;40;20026;-62
2021/05/03 06:41:45;;;;;;;5.60;3.15;;;11.40;60.40;;;;;;3545825;40;20042;-62
2021/05/03 06:44:11;;;;;;;7.10;2.97;;;11.40;61.10;;;;;;3544645;40;20037;-62
2021/05/03 06:46:38;;;;;;;4.35;2.60;;;11.20;61.80;;;;;;3544886;40;20030;-62
2021/05/03 06:49:04;;;;;;;8.00;3.20;;;11.10;61.60;;;;;;3546423;40;20030;-62
2021/05/03 06:51:30;;;;;;;5.45;2.50;;;11.10;62.00;;;;;;3541529;40;20042;-62
2021/05/03 06:53:56;;;;;;;4.32;2.30;;;11.10;62.30;;;;;;3546190;40;20053;-61
2021/05/03 06:56:24;;;;;;;5.38;2.15;;;11.20;62.70;;;;;;3547176;40;20416;-62
2021/05/03 06:58:49;;;;;;;4.50;2.30;;;11.40;62.20;;;;;;3544558;40;20050;-62
2021/05/03 07:01:15;;;;;;;2.58;2.35;;;11.60;60.90;;;;;;3542039;40;20104;-63
2021/05/03 07:03:43;;;;;;;3.78;2.20;;;11.60;60.00;;;;;;3544312;40;20037;-63
2021/05/03 07:06:09;;;;;;;5.55;2.30;;;11.50;60.30;;;;;;3546477;40;20541;-63
2021/05/03 07:08:34;;;;;;;6.75;2.20;;;11.50;60.80;;;;;;3546414;40;20022;-65
2021/05/03 07:11:05;;;;;;;4.00;2.60;;;11.30;60.80;;;;;;3542286;40;20026;-65
2021/05/03 07:13:31;;;;;;;4.55;2.20;;;11.30;62.70;;;;;;3543216;40;20104;-65
2021/05/03 07:15:56;;;;;;;5.78;2.60;;;11.30;61.90;;;;;;3543207;40;20034;-65
2021/05/03 07:18:22;;;;;;;5.10;2.25;;;11.30;62.40;;;;;;3540978;40;20037;-64
2021/05/03 07:20:48;;;;;;;5.85;2.20;;;11.40;61.90;;;;;;3541629;40;20093;-64
2021/05/03 07:23:14;;;;;;;4.32;2.22;;;11.50;61.50;;;;;;3544042;40;20034;-62
2021/05/03 07:25:40;;;;;;;3.60;1.80;;;11.50;60.40;;;;;;3545985;40;20035;-62
2021/05/03 07:28:05;;;;;;;2.50;1.85;;;11.60;60.70;;;;;;3545029;40;20042;-62
2021/05/03 07:30:31;;;;;;;5.65;2.22;;;11.60;61.00;;;;;;3545067;40;20046;-63
2021/05/03 07:32:57;;;;;;;3.10;1.70;;;11.60;60.40;;;;;;3541269;40;20320;-62
2021/05/03 07:35:22;;;;;;;6.22;2.30;;;11.60;60.20;;;;;;3541801;40;20042;-62
2021/05/03 07:37:48;;;;;;;3.83;1.58;;;11.60;60.50;;;;;;3546328;40;20042;-63
2021/05/03 07:40:14;;;;;;;3.42;1.65;;;11.50;60.00;;;;;;3545311;40;20039;-61
2021/05/03 07:42:40;;;;;;;3.78;1.63;;;11.30;60.00;;;;;;3544999;40;20027;-63
2021/05/03 07:45:06;;;;;;;4.53;1.70;;;11.30;60.00;;;;;;3548149;40;20062;-62
2021/05/03 07:47:32;;;;;;;8.02;3.92;;;11.40;59.50;;;;;;3545496;40;20030;-62
2021/05/03 07:49:58;;;;;;;15.07;7.97;;;11.60;59.90;;;;;;3545433;40;20046;-62
2021/05/03 07:52:24;;;;;;;2.35;1.45;;;11.70;59.60;;;;;;3544245;40;20034;-61
2021/05/03 07:54:50;;;;;;;1.58;1.20;;;11.80;59.60;;;;;;3545041;40;20035;-63
2021/05/03 07:57:16;;;;;;;4.47;1.83;;;12.10;60.00;;;;;;3544705;40;20352;-63
2021/05/03 07:59:41;;;;;;;3.72;1.55;;;12.50;57.20;;;;;;3539901;40;20061;-62
2021/05/03 08:02:08;;;;;;;3.97;1.58;;;12.80;57.30;;;;;;3542832;40;20030;-63
2021/05/03 08:04:34;;;;;;;4.40;1.35;;;13.00;55.30;;;;;;3542184;40;20054;-61
2021/05/03 08:07:00;;;;;;;4.03;1.42;;;12.80;55.60;;;;;;3545201;40;20105;-62
2021/05/03 08:09:27;;;;;;;1.10;1.02;;;12.60;54.70;;;;;;3544379;40;20030;-63
2021/05/03 08:11:53;;;;;;;5.63;1.67;;;12.60;56.00;;;;;;3544186;40;20127;-63
2021/05/03 08:14:20;;;;;;;3.38;1.35;;;13.00;56.60;;;;;;3542448;40;20112;-63
2021/05/03 08:16:52;;;;;;;1.02;0.93;;;13.30;54.10;;;;;;3546627;40;20030;-62
2021/05/03 08:19:18;;;;;;;1.73;1.17;;;13.30;54.00;;;;;;3543567;40;20025;-63
2021/05/03 08:21:43;;;;;;;3.45;1.05;;;13.10;53.30;;;;;;3545098;40;20419;-62
2021/05/03 08:24:09;;;;;;;2.05;1.08;;;13.10;53.60;;;;;;3546209;40;20079;-64
2021/05/03 08:26:35;;;;;;;2.08;1.00;;;13.10;54.40;;;;;;3545361;40;20026;-62
2021/05/03 08:29:01;;;;;;;0.93;0.80;;;13.30;54.00;;;;;;3544220;40;20026;-63
2021/05/03 08:31:27;;;;;;;2.38;1.27;;;13.30;54.00;;;;;;3543204;40;20034;-65
2021/05/03 08:33:52;;;;;;;4.80;1.30;;;13.70;54.40;;;;;;3544491;40;20119;-67
2021/05/03 08:36:18;;;;;;;2.80;1.00;;;14.20;51.80;;;;;;3545322;40;20037;-66
2021/05/03 08:38:44;;;;;;;2.42;0.95;;;14.20;50.70;;;;;;3546461;40;20030;-64
2021/05/03 08:41:13;;;;;;;2.65;1.00;;;14.00;50.90;;;;;;3546936;40;20873;-65
2021/05/03 08:43:41;;;;;;;2.50;0.85;;;13.70;52.00;;;;;;3544860;40;20074;-65
2021/05/03 08:46:09;;;;;;;2.00;1.42;;;13.50;52.00;;;;;;3546682;40;20026;-66
2021/05/03 08:48:45;;;;;;;1.33;1.23;;;13.60;50.80;;;;;;3543139;40;20419;-66
2021/05/03 08:51:18;;;;;;;;;;;13.70;51.50;;;;;;3545586;40;20412;-69
2021/05/03 08:53:53;;;;;;;1.00;0.80;;;13.60;50.80;;;;;;3542209;40;19933;-66
2021/05/03 08:56:19;;;;;;;2.15;1.60;;;13.50;51.70;;;;;;3543340;40;20026;-68
2021/05/03 08:58:44;;;;;;;2.38;0.80;;;13.40;52.00;;;;;;3548370;40;20152;-66
2021/05/03 09:01:10;;;;;;;2.25;1.10;;;13.20;51.50;;;;;;3542474;40;20632;-66
2021/05/03 09:03:40;;;;;;;1.95;1.08;;;13.10;52.00;;;;;;3544335;40;20507;-65
2021/05/03 09:06:09;;;;;;;1.60;0.75;;;12.90;53.20;;;;;;3543988;40;20788;-66
2021/05/03 09:08:35;;;;;;;1.98;1.05;;;12.90;52.80;;;;;;3543952;40;20050;-66
2021/05/03 09:11:00;;;;;;;0.98;0.90;;;13.20;55.60;;;;;;3546316;40;20336;-66
2021/05/03 09:13:35;;;;;;;1.25;1.15;;;13.60;52.80;;;;;;3546384;40;20061;-66
2021/05/03 09:16:22;;;;;;;3.93;1.40;;;13.80;51.40;;;;;;3543394;40;20039;-66
2021/05/03 09:18:49;;;;;;;1.73;0.90;;;13.70;52.30;;;;;;3545933;40;20723;-66
2021/05/03 09:21:30;;;;;;;1.50;1.13;;;13.90;51.90;;;;;;3544757;40;20031;-66
2021/05/03 09:23:59;;;;;;;4.40;1.65;;;14.10;52.20;;;;;;3533520;40;20107;-66
2021/05/03 09:26:41;;;;;;;2.42;1.25;;;14.30;47.90;;;;;;3544378;40;20033;-65
2021/05/03 09:29:36;;;;;;;4.10;1.75;;;14.50;49.10;;;;;;3548075;40;20035;-65
2021/05/03 09:32:09;;;;;;;5.15;2.33;;;14.40;49.50;;;;;;3548423;40;20120;-63
2021/05/03 09:34:53;;;;;;;26.40;15.02;;;14.20;50.50;;;;;;3545210;40;20035;-65
2021/05/03 09:37:34;;;;;;;17.52;9.52;;;14.10;49.50;;;;;;3547480;40;20034;-66
2021/05/03 09:40:12;;;;;;;5.00;3.10;;;14.10;51.00;;;;;;3547159;40;20066;-66
2021/05/03 09:42:46;;;;;;;1.52;1.15;;;14.10;51.00;;;;;;3544946;40;20045;-65
2021/05/03 09:45:38;;;;;;;5.45;3.50;;;14.30;51.30;;;;;;3544198;40;20162;-66
2021/05/03 09:48:03;;;;;;;1.40;0.80;;;14.40;49.60;;;;;;3542198;40;20034;-66
2021/05/03 09:50:31;;;;;;;1.58;1.17;;;14.60;49.50;;;;;;3546377;40;20033;-65
2021/05/03 09:53:10;;;;;;;2.08;0.77;;;14.40;48.10;;;;;;3540490;40;20042;-66
2021/05/03 09:55:56;;;;;;;2.53;1.17;;;14.30;47.80;;;;;;3542831;40;20022;-67
2021/05/03 09:58:24;;;;;;;1.40;0.73;;;14.30;49.50;;;;;;3544936;40;20036;-66
2021/05/03 10:00:57;;;;;;;2.90;0.82;;;14.60;48.30;;;;;;3545721;40;20049;-67
2021/05/03 10:03:47;;;;;;;4.15;1.60;;;14.50;46.90;;;;;;3532884;40;20046;-66
2021/05/03 10:06:18;;;;;;;7.45;2.60;;;14.30;48.90;;;;;;3549775;40;20041;-67
2021/05/03 10:08:48;;;;;;;6.35;2.50;;;14.50;49.90;;;;;;3546490;40;20111;-66
2021/05/03 10:11:16;;;;;;;3.20;1.55;;;14.90;47.30;;;;;;3545495;40;20379;-66
2021/05/03 10:13:44;;;;;;;3.72;2.47;;;15.10;48.80;;;;;;3546978;40;20491;-67
2021/05/03 10:16:11;;;;;;;3.72;1.90;;;15.00;45.80;;;;;;3548566;40;20021;-67
2021/05/03 10:18:39;;;;;;;3.55;1.40;;;14.60;45.90;;;;;;3548662;40;20030;-66
2021/05/03 10:21:12;;;;;;;6.65;3.70;;;14.30;47.50;;;;;;3547891;40;20112;-66
2021/05/03 10:23:45;;;;;;;2.38;1.00;;;14.00;48.30;;;;;;3546288;40;20064;-66
2021/05/03 10:26:11;;;;;;;7.03;3.15;;;13.80;48.40;;;;;;3541403;40;20059;-66
2021/05/03 10:28:54;;;;;;;8.80;3.90;;;13.90;48.60;;;;;;3542504;40;20156;-66
2021/05/03 10:31:21;;;;;;;5.38;2.03;;;14.70;48.50;;;;;;3540877;40;20046;-65
2021/05/03 10:33:47;;;;;;;3.75;2.25;;;15.40;47.80;;;;;;3548288;40;20042;-66
2021/05/03 10:36:34;;;;;;;16.63;7.10;;;15.50;46.20;;;;;;3547036;40;20030;-66
2021/05/03 10:39:00;;;;;;;7.65;3.55;;;15.30;43.70;;;;;;3545446;40;20038;-62
2021/05/03 10:41:27;;;;;;;3.83;1.95;;;14.90;45.40;;;;;;3542710;40;20039;-66
2021/05/03 10:44:17;;;;;;;23.70;7.45;;;14.80;45.40;;;;;;3548139;40;20030;-65
2021/05/03 10:51:44;;;;;;;4.53;2.13;;;14.40;47.80;;;;;;3541825;40;20234;-61
2021/05/03 10:54:25;;;;;;;2.42;1.35;;;14.60;47.60;;;;;;3544400;40;20038;-62
2021/05/03 10:56:51;;;;;;;6.22;2.08;;;14.80;47.30;;;;;;3542281;40;21066;-62
2021/05/03 10:59:17;;;;;;;5.70;2.60;;;14.80;46.90;;;;;;3547219;40;20695;-62
2021/05/03 11:01:52;;;;;;;5.18;2.55;;;14.60;46.40;;;;;;3543964;40;20022;-63
2021/05/03 11:04:28;;;;;;;4.60;2.35;;;14.40;47.20;;;;;;3539609;40;20957;-63
2021/05/03 11:06:57;;;;;;;8.57;4.35;;;14.20;48.20;;;;;;3543556;40;20041;-64
2021/05/03 11:09:29;;;;;;;5.97;2.72;;;14.10;49.10;;;;;;3544058;40;20022;-63
2021/05/03 11:11:57;;;;;;;4.07;2.05;;;14.30;49.60;;;;;;3548678;40;20144;-62
2021/05/03 11:14:23;;;;;;;5.40;2.00;;;14.20;47.40;;;;;;3541386;40;20019;-62
2021/05/03 11:16:53;;;;;;;2.25;1.48;;;14.20;47.90;;;;;;3547662;40;20715;-62
2021/05/03 11:19:55;;;;;;;1.98;1.20;;;14.30;47.60;;;;;;3544394;40;20034;-62
2021/05/03 11:22:25;;;;;;;7.07;4.30;;;14.40;49.00;;;;;;3545950;40;20048;-62
2021/05/03 11:24:59;;;;;;;9.45;4.72;;;14.70;48.00;;;;;;3542150;40;20124;-62
2021/05/03 11:30:34;;;;;;;2.30;1.25;;;14.80;46.10;;;;;;3541799;40;20143;-61
2021/05/03 11:33:47;;;;;;;3.08;0.95;;;14.70;46.20;;;;;;3543108;40;20421;-61
2021/05/03 11:38:33;;;;;;;1.30;1.05;;;14.80;45.60;;;;;;3543089;40;20053;-61
2021/05/03 11:41:30;;;;;;;6.85;3.10;;;14.80;45.10;;;;;;3540284;40;20035;-61
2021/05/03 11:46:31;;;;;;;1.73;1.30;;;14.70;45.70;;;;;;3543447;40;20018;-62
2021/05/03 11:49:13;;;;;;;2.70;1.00;;;14.70;45.20;;;;;;3544955;40;20034;-62
2021/05/03 11:51:52;;;;;;;7.88;3.53;;;14.80;47.30;;;;;;3545206;40;20034;-61
2021/05/03 11:54:25;;;;;;;0.80;0.80;;;14.90;45.80;;;;;;3544841;40;20091;-62
2021/05/03 11:57:00;;;;;;;1.17;0.80;;;14.90;46.40;;;;;;3540545;40;20044;-66
2021/05/03 11:59:26;;;;;;;4.95;1.92;;;15.00;45.60;;;;;;3544950;40;20050;-63
2021/05/03 12:02:24;;;;;;;1.83;1.08;;;15.10;45.10;;;;;;3544290;40;20977;-61
2021/05/03 12:04:49;;;;;;;1.83;1.10;;;15.10;45.20;;;;;;3541767;40;20499;-62
2021/05/03 12:07:30;;;;;;;1.88;1.27;;;15.20;45.70;;;;;;3548681;40;20052;-63
2021/05/03 12:10:03;;;;;;;4.50;2.22;;;15.40;46.20;;;;;;3544108;40;20303;-60
2021/05/03 12:12:37;;;;;;;2.95;1.73;;;15.40;46.00;;;;;;3541337;40;20031;-62
2021/05/03 12:15:05;;;;;;;5.03;2.40;;;15.30;45.10;;;;;;3544215;40;20034;-62
2021/05/03 12:17:32;;;;;;;7.55;2.38;;;14.90;46.10;;;;;;3542626;40;20196;-62
2021/05/03 12:20:11;;;;;;;1.80;1.20;;;14.60;47.30;;;;;;3541255;40;20058;-61
2021/05/03 12:22:38;;;;;;;1.92;1.10;;;14.70;48.70;;;;;;3540696;40;20041;-60
2021/05/03 12:25:09;;;;;;;5.18;1.90;;;14.90;48.60;;;;;;3544278;40;20315;-62
2021/05/03 12:27:36;;;;;;;3.55;1.80;;;14.90;47.30;;;;;;3542467;40;20030;-62
2021/05/03 12:30:07;;;;;;;3.88;1.75;;;14.70;48.20;;;;;;3543799;40;20054;-62
2021/05/03 12:32:38;;;;;;;3.88;2.10;;;14.60;47.40;;;;;;3543345;40;20030;-62
2021/05/03 12:35:06;;;;;;;3.95;1.50;;;14.40;47.50;;;;;;3544534;40;20053;-61
2021/05/03 12:37:32;;;;;;;4.32;1.77;;;14.20;48.90;;;;;;3540021;40;20107;-61
2021/05/03 12:40:07;;;;;;;2.75;1.40;;;14.30;48.70;;;;;;3541736;40;20038;-62
2021/05/03 12:42:43;;;;;;;1.75;1.20;;;14.50;48.20;;;;;;3542864;40;20077;-61
2021/05/03 12:45:13;;;;;;;;;;;14.60;48.70;;;;;;3546027;40;20034;-61
2021/05/03 12:47:58;;;;;;;3.75;1.67;;;14.70;48.00;;;;;;3544472;40;19937;-61
2021/05/03 12:50:30;;;;;;;1.65;1.30;;;14.80;48.40;;;;;;3547010;40;20030;-62
2021/05/03 12:53:25;;;;;;;2.80;1.63;;;14.90;48.20;;;;;;3541303;40;20137;-61
2021/05/03 12:59:02;;;;;;;3.47;1.63;;;14.60;48.90;;;;;;3543922;40;20320;-62
2021/05/03 13:02:12;;;;;;;;;;;14.40;49.60;;;;;;3540774;40;20178;-61
2021/05/03 13:04:56;;;;;;;3.88;1.80;;;14.30;49.30;;;;;;3538812;40;19937;-62
2021/05/03 13:29:53;;;;;;;4.38;2.63;;;13.40;54.40;;;;;;3543453;40;20034;-61
2021/05/03 13:32:20;;;;;;;4.40;2.72;;;13.80;54.40;;;;;;3545768;40;20038;-62
2021/05/03 13:34:50;;;;;;;5.72;3.30;;;14.10;53.60;;;;;;3539940;40;20030;-62
2021/05/03 13:37:17;;;;;;;5.63;2.88;;;14.20;50.40;;;;;;3542564;40;20049;-61
2021/05/03 13:39:43;;;;;;;2.90;2.58;;;14.10;51.30;;;;;;3544056;40;20046;-61
2021/05/03 13:42:10;;;;;;;3.78;2.65;;;14.10;50.70;;;;;;3547908;40;20037;-64
2021/05/03 13:44:37;;;;;;;4.32;2.45;;;14.20;51.60;;;;;;3539338;40;20131;-65
2021/05/03 13:47:04;;;;;;;4.22;2.80;;;14.40;50.60;;;;;;3539154;40;20046;-65
2021/05/03 13:49:31;;;;;;;4.70;2.80;;;14.60;51.80;;;;;;3541800;40;20101;-62
2021/05/03 13:51:58;;;;;;;4.60;2.90;;;14.80;50.40;;;;;;3543587;40;20359;-65
2021/05/03 13:54:25;;;;;;;4.57;2.80;;;14.90;50.80;;;;;;3543309;40;20178;-62